SLHT weather

Transierra Helipuerto
Transierra Natural Gas Co., Tarija Department, Bolivia

Public forecast

Using degrees Celsius for public forecast. Weather courtesy of forecast.io.

METAR (pilot weather report)

Report is more than 6 hours old.

Closest report is Teniente Coronel Rafael Pab√≥n Airport, 6.5 nm (12.0 km) NE. Retrieved 2019/09/13 20:00 UTC (2 days ago):

SLVM 132000Z 00000KT 9999 SCT070 28/10 Q1013

TAF (pilot weather forecast)

Forecast is more than 12 hours old.

Closest forecast is Yacuiba Airport, 38.6 nm (71.5 km) SSW. Retrieved 2019/09/08 18:30 UTC (7 days ago):

TAF SLYA 081600Z 0818/0918 06010KT 9999 FEW020 SCT070 TX27/0819Z TN13 /0911Z BECMG 0900/0902 00000KT